sensor_id;sensor_type;location;lat;lon;timestamp;pressure;altitude;pressure_sealevel;temperature;humidity
20987;BME280;10652;50.306;8.570;2024-02-26T00:01:34;96241.75;;;4.93;74.92
20987;BME280;10652;50.306;8.570;2024-02-26T00:05:36;96223.69;;;4.75;74.98
20987;BME280;10652;50.306;8.570;2024-02-26T00:09:41;96224.84;;;4.69;75.54
20987;BME280;10652;50.306;8.570;2024-02-26T00:13:43;96221.41;;;4.68;75.68
20987;BME280;10652;50.306;8.570;2024-02-26T00:17:45;96219.81;;;4.66;75.54
20987;BME280;10652;50.306;8.570;2024-02-26T00:21:48;96209.09;;;4.72;75.43
20987;BME280;10652;50.306;8.570;2024-02-26T00:25:50;96216.69;;;4.59;76.00
20987;BME280;10652;50.306;8.570;2024-02-26T00:29:52;96206.97;;;4.63;77.02
20987;BME280;10652;50.306;8.570;2024-02-26T00:33:54;96215.09;;;4.72;77.28
20987;BME280;10652;50.306;8.570;2024-02-26T00:37:57;96197.44;;;4.79;77.15
20987;BME280;10652;50.306;8.570;2024-02-26T00:42:00;96204.13;;;4.83;77.57
20987;BME280;10652;50.306;8.570;2024-02-26T00:46:03;96199.34;;;4.91;77.97
20987;BME280;10652;50.306;8.570;2024-02-26T00:50:05;96194.59;;;4.99;77.83
20987;BME280;10652;50.306;8.570;2024-02-26T00:54:09;96201.22;;;5.05;78.52
20987;BME280;10652;50.306;8.570;2024-02-26T00:58:11;96193.22;;;4.92;75.30
20987;BME280;10652;50.306;8.570;2024-02-26T01:02:14;96199.69;;;4.69;75.33
20987;BME280;10652;50.306;8.570;2024-02-26T01:06:16;96185.22;;;4.48;74.49
20987;BME280;10652;50.306;8.570;2024-02-26T01:10:18;96158.56;;;4.28;74.95
20987;BME280;10652;50.306;8.570;2024-02-26T01:14:20;96140.97;;;4.17;75.53
20987;BME280;10652;50.306;8.570;2024-02-26T01:18:23;96190.47;;;4.31;76.95
20987;BME280;10652;50.306;8.570;2024-02-26T01:22:25;96189.75;;;4.45;76.80
20987;BME280;10652;50.306;8.570;2024-02-26T01:26:28;96182.97;;;4.58;76.42
20987;BME280;10652;50.306;8.570;2024-02-26T01:30:30;96192.59;;;4.56;76.48
20987;BME280;10652;50.306;8.570;2024-02-26T01:34:32;96179.13;;;4.65;76.99
20987;BME280;10652;50.306;8.570;2024-02-26T01:38:35;96184.06;;;4.69;76.82
20987;BME280;10652;50.306;8.570;2024-02-26T01:42:38;96166.59;;;4.56;76.32
20987;BME280;10652;50.306;8.570;2024-02-26T01:46:41;96154.41;;;4.41;76.00
20987;BME280;10652;50.306;8.570;2024-02-26T01:50:44;96148.84;;;4.15;77.09
20987;BME280;10652;50.306;8.570;2024-02-26T01:54:46;96149.91;;;4.11;78.26
20987;BME280;10652;50.306;8.570;2024-02-26T01:58:48;96164.84;;;4.23;78.61
20987;BME280;10652;50.306;8.570;2024-02-26T02:02:51;96157.66;;;4.29;78.03
20987;BME280;10652;50.306;8.570;2024-02-26T02:06:55;96153.00;;;4.18;78.26
20987;BME280;10652;50.306;8.570;2024-02-26T02:10:59;96186.78;;;4.18;78.41
20987;BME280;10652;50.306;8.570;2024-02-26T02:15:01;96163.78;;;4.28;78.87
20987;BME280;10652;50.306;8.570;2024-02-26T02:19:04;96167.75;;;4.35;78.67
20987;BME280;10652;50.306;8.570;2024-02-26T02:23:06;96166.59;;;4.40;78.91
20987;BME280;10652;50.306;8.570;2024-02-26T02:27:08;96157.34;;;4.35;78.40
20987;BME280;10652;50.306;8.570;2024-02-26T02:31:11;96149.44;;;4.20;80.86
20987;BME280;10652;50.306;8.570;2024-02-26T02:35:13;96164.25;;;4.36;81.33
20987;BME280;10652;50.306;8.570;2024-02-26T02:39:16;96159.72;;;4.39;80.80
20987;BME280;10652;50.306;8.570;2024-02-26T02:43:18;96167.88;;;4.49;80.66
20987;BME280;10652;50.306;8.570;2024-02-26T02:47:20;96182.22;;;4.56;80.87
20987;BME280;10652;50.306;8.570;2024-02-26T02:51:22;96183.72;;;4.60;80.88
20987;BME280;10652;50.306;8.570;2024-02-26T02:55:25;96180.75;;;4.50;80.13
20987;BME280;10652;50.306;8.570;2024-02-26T02:59:27;96187.03;;;4.46;80.79
20987;BME280;10652;50.306;8.570;2024-02-26T03:03:29;96173.66;;;4.54;81.15
20987;BME280;10652;50.306;8.570;2024-02-26T03:07:31;96177.78;;;4.58;80.43
20987;BME280;10652;50.306;8.570;2024-02-26T03:11:34;96190.25;;;4.51;80.83
20987;BME280;10652;50.306;8.570;2024-02-26T03:15:36;96185.41;;;4.61;81.30
20987;BME280;10652;50.306;8.570;2024-02-26T03:19:38;96187.81;;;4.64;80.37
20987;BME280;10652;50.306;8.570;2024-02-26T03:23:40;96185.22;;;4.48;80.58
20987;BME280;10652;50.306;8.570;2024-02-26T03:27:42;96191.88;;;4.37;81.51
20987;BME280;10652;50.306;8.570;2024-02-26T03:31:44;96183.25;;;4.36;83.07
20987;BME280;10652;50.306;8.570;2024-02-26T03:35:46;96177.91;;;4.39;83.11
20987;BME280;10652;50.306;8.570;2024-02-26T03:39:49;96177.56;;;4.45;83.75
20987;BME280;10652;50.306;8.570;2024-02-26T03:43:51;96185.56;;;4.58;83.71
20987;BME280;10652;50.306;8.570;2024-02-26T03:47:53;96181.88;;;4.62;83.41
20987;BME280;10652;50.306;8.570;2024-02-26T03:51:55;96183.56;;;4.63;83.45
20987;BME280;10652;50.306;8.570;2024-02-26T03:56:03;96177.97;;;4.70;83.21
20987;BME280;10652;50.306;8.570;2024-02-26T04:00:06;96181.03;;;4.77;83.09
20987;BME280;10652;50.306;8.570;2024-02-26T04:04:14;96177.53;;;4.78;82.64
20987;BME280;10652;50.306;8.570;2024-02-26T04:08:17;96197.34;;;4.81;83.10
20987;BME280;10652;50.306;8.570;2024-02-26T04:12:20;96172.31;;;4.78;82.98
20987;BME280;10652;50.306;8.570;2024-02-26T04:16:22;96182.72;;;4.78;83.30
20987;BME280;10652;50.306;8.570;2024-02-26T04:20:24;96183.22;;;4.69;82.83
20987;BME280;10652;50.306;8.570;2024-02-26T04:24:27;96178.19;;;4.66;83.13
20987;BME280;10652;50.306;8.570;2024-02-26T04:28:29;96188.78;;;4.63;84.64
20987;BME280;10652;50.306;8.570;2024-02-26T04:32:31;96184.31;;;4.65;83.95
20987;BME280;10652;50.306;8.570;2024-02-26T04:36:33;96194.13;;;4.60;84.71
20987;BME280;10652;50.306;8.570;2024-02-26T04:40:36;96190.28;;;4.67;84.87
20987;BME280;10652;50.306;8.570;2024-02-26T04:44:38;96183.16;;;4.70;85.00
20987;BME280;10652;50.306;8.570;2024-02-26T04:48:40;96183.91;;;4.72;84.73
20987;BME280;10652;50.306;8.570;2024-02-26T04:52:44;96180.25;;;4.77;84.92
20987;BME280;10652;50.306;8.570;2024-02-26T04:56:46;96187.78;;;4.81;85.42
20987;BME280;10652;50.306;8.570;2024-02-26T05:00:49;96188.84;;;4.77;84.59
20987;BME280;10652;50.306;8.570;2024-02-26T05:04:51;96196.66;;;4.77;84.22
20987;BME280;10652;50.306;8.570;2024-02-26T05:08:53;96198.34;;;4.78;83.88
20987;BME280;10652;50.306;8.570;2024-02-26T05:12:56;96197.25;;;4.82;84.05
20987;BME280;10652;50.306;8.570;2024-02-26T05:16:58;96198.44;;;4.92;84.14
20987;BME280;10652;50.306;8.570;2024-02-26T05:21:00;96199.03;;;4.97;83.80
20987;BME280;10652;50.306;8.570;2024-02-26T05:25:03;96207.59;;;4.99;83.51
20987;BME280;10652;50.306;8.570;2024-02-26T05:29:06;96206.50;;;5.03;83.46
20987;BME280;10652;50.306;8.570;2024-02-26T05:33:08;96211.72;;;5.03;83.39
20987;BME280;10652;50.306;8.570;2024-02-26T05:37:10;96215.81;;;5.07;83.66
20987;BME280;10652;50.306;8.570;2024-02-26T05:41:15;96224.38;;;5.09;83.92
20987;BME280;10652;50.306;8.570;2024-02-26T05:45:17;96215.06;;;5.05;83.62
20987;BME280;10652;50.306;8.570;2024-02-26T05:49:22;96220.50;;;5.01;83.92
20987;BME280;10652;50.306;8.570;2024-02-26T05:53:24;96226.72;;;4.98;84.94
20987;BME280;10652;50.306;8.570;2024-02-26T05:57:27;96228.75;;;4.93;85.37
20987;BME280;10652;50.306;8.570;2024-02-26T06:01:30;96230.44;;;4.94;86.23
20987;BME280;10652;50.306;8.570;2024-02-26T06:05:33;96231.09;;;4.98;86.94
20987;BME280;10652;50.306;8.570;2024-02-26T06:09:36;96232.59;;;5.02;87.51
20987;BME280;10652;50.306;8.570;2024-02-26T06:13:38;96236.72;;;4.90;86.71
20987;BME280;10652;50.306;8.570;2024-02-26T06:17:40;96241.63;;;4.79;87.53
20987;BME280;10652;50.306;8.570;2024-02-26T06:21:42;96254.97;;;4.73;88.08
20987;BME280;10652;50.306;8.570;2024-02-26T06:25:45;96259.25;;;4.74;89.43
20987;BME280;10652;50.306;8.570;2024-02-26T06:29:48;96262.16;;;4.68;89.86
20987;BME280;10652;50.306;8.570;2024-02-26T06:33:51;96263.72;;;4.55;90.38
20987;BME280;10652;50.306;8.570;2024-02-26T06:37:53;96272.00;;;4.46;91.61
20987;BME280;10652;50.306;8.570;2024-02-26T06:41:56;96272.16;;;4.43;93.94
20987;BME280;10652;50.306;8.570;2024-02-26T06:46:02;96274.75;;;4.43;93.83
20987;BME280;10652;50.306;8.570;2024-02-26T06:50:05;96285.81;;;4.46;95.15
20987;BME280;10652;50.306;8.570;2024-02-26T06:54:07;96293.84;;;4.59;96.45
20987;BME280;10652;50.306;8.570;2024-02-26T06:58:11;96295.28;;;4.64;96.80
20987;BME280;10652;50.306;8.570;2024-02-26T07:02:14;96297.44;;;4.56;95.59
20987;BME280;10652;50.306;8.570;2024-02-26T07:06:16;96309.00;;;4.51;96.22
20987;BME280;10652;50.306;8.570;2024-02-26T07:10:18;96306.16;;;4.55;95.87
20987;BME280;10652;50.306;8.570;2024-02-26T07:14:21;96315.56;;;4.58;96.33
20987;BME280;10652;50.306;8.570;2024-02-26T07:18:23;96321.28;;;4.64;96.65
20987;BME280;10652;50.306;8.570;2024-02-26T07:22:26;96329.63;;;4.71;96.76
20987;BME280;10652;50.306;8.570;2024-02-26T07:26:28;96332.75;;;4.78;97.55
20987;BME280;10652;50.306;8.570;2024-02-26T07:30:32;96333.78;;;4.91;97.22
20987;BME280;10652;50.306;8.570;2024-02-26T07:34:35;96331.13;;;4.92;97.14
20987;BME280;10652;50.306;8.570;2024-02-26T07:38:37;96328.47;;;5.09;98.68
20987;BME280;10652;50.306;8.570;2024-02-26T07:42:45;96324.22;;;5.08;97.53
20987;BME280;10652;50.306;8.570;2024-02-26T07:46:47;96336.63;;;5.03;97.44
20987;BME280;10652;50.306;8.570;2024-02-26T07:50:49;96345.94;;;5.07;97.39
20987;BME280;10652;50.306;8.570;2024-02-26T07:54:51;96352.34;;;5.18;98.32
20987;BME280;10652;50.306;8.570;2024-02-26T07:58:53;96352.34;;;5.18;96.76
20987;BME280;10652;50.306;8.570;2024-02-26T08:02:56;96346.59;;;5.11;97.32
20987;BME280;10652;50.306;8.570;2024-02-26T08:06:58;96347.28;;;5.14;97.10
20987;BME280;10652;50.306;8.570;2024-02-26T08:11:01;96360.72;;;5.23;95.87
20987;BME280;10652;50.306;8.570;2024-02-26T08:15:04;96361.31;;;5.28;95.01
20987;BME280;10652;50.306;8.570;2024-02-26T08:19:07;96365.06;;;5.39;96.04
20987;BME280;10652;50.306;8.570;2024-02-26T08:23:10;96375.72;;;5.35;94.48
20987;BME280;10652;50.306;8.570;2024-02-26T08:27:12;96375.53;;;5.38;94.06
20987;BME280;10652;50.306;8.570;2024-02-26T08:31:14;96373.00;;;5.36;92.81
20987;BME280;10652;50.306;8.570;2024-02-26T08:35:16;96370.03;;;5.44;93.33
20987;BME280;10652;50.306;8.570;2024-02-26T08:39:19;96378.56;;;5.46;92.18
20987;BME280;10652;50.306;8.570;2024-02-26T08:43:21;96382.25;;;5.42;93.06
20987;BME280;10652;50.306;8.570;2024-02-26T08:47:23;96385.53;;;5.45;93.21
20987;BME280;10652;50.306;8.570;2024-02-26T08:51:26;96378.44;;;5.49;92.76
20987;BME280;10652;50.306;8.570;2024-02-26T08:55:29;96381.78;;;5.51;92.91
20987;BME280;10652;50.306;8.570;2024-02-26T08:59:31;96395.94;;;5.30;92.23
20987;BME280;10652;50.306;8.570;2024-02-26T09:03:33;96394.50;;;5.24;94.31
20987;BME280;10652;50.306;8.570;2024-02-26T09:07:36;96393.16;;;5.33;95.42
20987;BME280;10652;50.306;8.570;2024-02-26T09:11:38;96391.16;;;5.38;94.55
20987;BME280;10652;50.306;8.570;2024-02-26T09:15:40;96387.97;;;5.33;95.83
20987;BME280;10652;50.306;8.570;2024-02-26T09:19:43;96393.78;;;5.38;96.64
20987;BME280;10652;50.306;8.570;2024-02-26T09:23:46;96398.13;;;5.22;97.40
20987;BME280;10652;50.306;8.570;2024-02-26T09:27:48;96395.94;;;5.30;97.68
20987;BME280;10652;50.306;8.570;2024-02-26T09:31:50;96397.88;;;5.42;98.62
20987;BME280;10652;50.306;8.570;2024-02-26T09:35:53;96404.81;;;5.58;98.02
20987;BME280;10652;50.306;8.570;2024-02-26T09:39:56;96407.50;;;5.73;98.22
20987;BME280;10652;50.306;8.570;2024-02-26T09:44:02;96402.53;;;5.99;97.85
20987;BME280;10652;50.306;8.570;2024-02-26T09:48:08;96396.06;;;6.22;96.97
20987;BME280;10652;50.306;8.570;2024-02-26T09:52:12;96398.25;;;6.45;97.40
20987;BME280;10652;50.306;8.570;2024-02-26T09:56:14;96401.03;;;6.72;96.81
20987;BME280;10652;50.306;8.570;2024-02-26T10:00:18;96414.69;;;6.91;95.85
20987;BME280;10652;50.306;8.570;2024-02-26T10:04:24;96410.41;;;6.90;93.92
20987;BME280;10652;50.306;8.570;2024-02-26T10:08:27;96421.22;;;6.84;92.86
20987;BME280;10652;50.306;8.570;2024-02-26T10:12:30;96423.63;;;6.87;92.86
20987;BME280;10652;50.306;8.570;2024-02-26T10:16:34;96425.28;;;6.74;90.83
20987;BME280;10652;50.306;8.570;2024-02-26T10:20:37;96430.38;;;6.46;91.13
20987;BME280;10652;50.306;8.570;2024-02-26T10:24:39;96427.72;;;6.32;92.22
20987;BME280;10652;50.306;8.570;2024-02-26T10:28:45;96434.28;;;6.39;95.00
20987;BME280;10652;50.306;8.570;2024-02-26T10:32:50;96440.16;;;6.58;95.12
20987;BME280;10652;50.306;8.570;2024-02-26T10:36:53;96442.44;;;6.78;95.86
20987;BME280;10652;50.306;8.570;2024-02-26T10:40:56;96441.38;;;6.97;95.00
20987;BME280;10652;50.306;8.570;2024-02-26T10:44:58;96450.44;;;7.05;94.12
20987;BME280;10652;50.306;8.570;2024-02-26T10:49:01;96457.56;;;6.87;92.34
20987;BME280;10652;50.306;8.570;2024-02-26T10:53:05;96458.03;;;6.64;94.22
20987;BME280;10652;50.306;8.570;2024-02-26T10:57:09;96458.72;;;6.21;95.56
20987;BME280;10652;50.306;8.570;2024-02-26T11:01:12;96460.88;;;5.81;99.03
20987;BME280;10652;50.306;8.570;2024-02-26T11:05:14;96462.31;;;5.71;100.00
20987;BME280;10652;50.306;8.570;2024-02-26T11:09:19;96467.19;;;5.77;100.00
20987;BME280;10652;50.306;8.570;2024-02-26T11:13:23;96469.03;;;5.75;100.00
20987;BME280;10652;50.306;8.570;2024-02-26T11:17:29;96475.81;;;5.62;100.00
20987;BME280;10652;50.306;8.570;2024-02-26T11:21:33;96474.06;;;5.63;100.00
20987;BME280;10652;50.306;8.570;2024-02-26T11:25:43;96469.22;;;5.55;100.00
20987;BME280;10652;50.306;8.570;2024-02-26T11:29:51;96472.38;;;5.62;100.00
20987;BME280;10652;50.306;8.570;2024-02-26T11:33:55;96482.66;;;5.80;100.00
20987;BME280;10652;50.306;8.570;2024-02-26T11:37:59;96483.09;;;5.88;100.00
20987;BME280;10652;50.306;8.570;2024-02-26T11:42:06;96482.00;;;5.92;100.00
20987;BME280;10652;50.306;8.570;2024-02-26T11:46:25;96488.91;;;5.93;100.00
20987;BME280;10652;50.306;8.570;2024-02-26T11:50:36;96491.09;;;5.85;100.00
20987;BME280;10652;50.306;8.570;2024-02-26T11:54:52;96497.63;;;5.92;100.00
20987;BME280;10652;50.306;8.570;2024-02-26T11:59:04;96505.16;;;5.81;100.00
20987;BME280;10652;50.306;8.570;2024-02-26T12:03:09;96490.47;;;5.80;100.00
20987;BME280;10652;50.306;8.570;2024-02-26T12:07:14;96482.81;;;5.77;100.00
20987;BME280;10652;50.306;8.570;2024-02-26T12:11:16;96484.38;;;6.13;100.00
20987;BME280;10652;50.306;8.570;2024-02-26T12:15:18;96487.75;;;6.46;100.00
20987;BME280;10652;50.306;8.570;2024-02-26T12:19:23;96494.56;;;6.64;100.00
20987;BME280;10652;50.306;8.570;2024-02-26T12:23:26;96500.03;;;6.75;100.00
20987;BME280;10652;50.306;8.570;2024-02-26T12:27:29;96496.75;;;7.02;100.00
20987;BME280;10652;50.306;8.570;2024-02-26T12:31:32;96497.09;;;6.96;100.00
20987;BME280;10652;50.306;8.570;2024-02-26T12:35:35;96499.19;;;7.05;100.00
20987;BME280;10652;50.306;8.570;2024-02-26T12:39:38;96502.56;;;7.07;100.00
20987;BME280;10652;50.306;8.570;2024-02-26T12:43:41;96511.44;;;6.88;99.76
20987;BME280;10652;50.306;8.570;2024-02-26T12:47:44;96508.75;;;6.90;100.00
20987;BME280;10652;50.306;8.570;2024-02-26T12:51:50;96520.56;;;7.11;100.00
20987;BME280;10652;50.306;8.570;2024-02-26T12:55:55;96525.88;;;7.40;100.00
20987;BME280;10652;50.306;8.570;2024-02-26T12:59:59;96529.78;;;7.32;100.00
20987;BME280;10652;50.306;8.570;2024-02-26T13:04:03;96543.31;;;7.39;100.00
20987;BME280;10652;50.306;8.570;2024-02-26T13:08:09;96536.59;;;7.35;100.00
20987;BME280;10652;50.306;8.570;2024-02-26T13:12:12;96532.44;;;7.17;99.32
20987;BME280;10652;50.306;8.570;2024-02-26T13:16:15;96524.25;;;7.23;100.00
20987;BME280;10652;50.306;8.570;2024-02-26T13:24:31;96541.31;;;7.58;99.08
20987;BME280;10652;50.306;8.570;2024-02-26T13:28:34;96550.50;;;7.50;99.09
20987;BME280;10652;50.306;8.570;2024-02-26T13:32:38;96543.78;;;7.46;99.80
20987;BME280;10652;50.306;8.570;2024-02-26T13:36:40;96552.50;;;7.60;98.83
20987;BME280;10652;50.306;8.570;2024-02-26T13:40:42;96558.94;;;7.55;97.56
20987;BME280;10652;50.306;8.570;2024-02-26T13:44:44;96573.94;;;7.51;97.49
20987;BME280;10652;50.306;8.570;2024-02-26T13:48:47;96564.06;;;7.56;97.05
20987;BME280;10652;50.306;8.570;2024-02-26T13:52:50;96563.00;;;7.74;96.84
20987;BME280;10652;50.306;8.570;2024-02-26T13:56:55;96568.19;;;7.60;96.28
20987;BME280;10652;50.306;8.570;2024-02-26T14:00:58;96566.50;;;7.59;96.29
20987;BME280;10652;50.306;8.570;2024-02-26T14:05:02;96576.53;;;7.67;96.00
20987;BME280;10652;50.306;8.570;2024-02-26T14:09:07;96573.88;;;7.53;95.52
20987;BME280;10652;50.306;8.570;2024-02-26T14:13:10;96587.34;;;7.45;96.76
20987;BME280;10652;50.306;8.570;2024-02-26T14:17:12;96580.63;;;7.41;97.96
20987;BME280;10652;50.306;8.570;2024-02-26T14:21:14;96580.94;;;7.21;98.95
20987;BME280;10652;50.306;8.570;2024-02-26T14:25:17;96580.81;;;7.08;99.97
20987;BME280;10652;50.306;8.570;2024-02-26T14:29:20;96579.31;;;6.88;100.00
20987;BME280;10652;50.306;8.570;2024-02-26T14:33:22;96586.88;;;6.93;100.00
20987;BME280;10652;50.306;8.570;2024-02-26T14:37:24;96590.75;;;7.02;100.00
20987;BME280;10652;50.306;8.570;2024-02-26T14:41:27;96591.91;;;7.12;100.00
20987;BME280;10652;50.306;8.570;2024-02-26T14:45:29;96597.22;;;7.10;100.00
20987;BME280;10652;50.306;8.570;2024-02-26T14:49:32;96596.47;;;7.08;100.00
20987;BME280;10652;50.306;8.570;2024-02-26T14:53:35;96606.66;;;7.13;100.00
20987;BME280;10652;50.306;8.570;2024-02-26T14:57:37;96607.72;;;7.09;99.84
20987;BME280;10652;50.306;8.570;2024-02-26T15:01:39;96613.91;;;7.08;99.85
20987;BME280;10652;50.306;8.570;2024-02-26T15:05:44;96614.06;;;7.05;99.98
20987;BME280;10652;50.306;8.570;2024-02-26T15:09:46;96620.06;;;7.07;100.00
20987;BME280;10652;50.306;8.570;2024-02-26T15:13:48;96620.91;;;7.07;99.73
20987;BME280;10652;50.306;8.570;2024-02-26T15:17:51;96624.44;;;7.06;100.00
20987;BME280;10652;50.306;8.570;2024-02-26T15:21:53;96630.81;;;7.16;100.00
20987;BME280;10652;50.306;8.570;2024-02-26T15:25:56;96630.38;;;7.24;100.00
20987;BME280;10652;50.306;8.570;2024-02-26T15:29:58;96636.72;;;7.20;100.00
20987;BME280;10652;50.306;8.570;2024-02-26T15:34:05;96630.72;;;7.18;100.00
20987;BME280;10652;50.306;8.570;2024-02-26T15:38:08;96642.00;;;7.18;100.00
20987;BME280;10652;50.306;8.570;2024-02-26T15:42:10;96642.72;;;7.22;100.00
20987;BME280;10652;50.306;8.570;2024-02-26T15:46:13;96642.97;;;7.17;100.00
20987;BME280;10652;50.306;8.570;2024-02-26T15:50:15;96647.84;;;7.08;100.00
20987;BME280;10652;50.306;8.570;2024-02-26T15:54:17;96653.41;;;7.02;100.00
20987;BME280;10652;50.306;8.570;2024-02-26T15:58:19;96657.09;;;6.98;100.00
20987;BME280;10652;50.306;8.570;2024-02-26T16:02:22;96669.50;;;6.94;100.00
20987;BME280;10652;50.306;8.570;2024-02-26T16:10:36;96679.09;;;6.93;100.00
20987;BME280;10652;50.306;8.570;2024-02-26T16:14:51;96693.47;;;7.01;100.00
20987;BME280;10652;50.306;8.570;2024-02-26T16:19:05;96705.03;;;7.12;100.00
20987;BME280;10652;50.306;8.570;2024-02-26T16:23:09;96705.13;;;7.11;100.00
20987;BME280;10652;50.306;8.570;2024-02-26T16:27:11;96708.16;;;7.03;100.00
20987;BME280;10652;50.306;8.570;2024-02-26T16:31:13;96721.78;;;6.92;100.00
20987;BME280;10652;50.306;8.570;2024-02-26T16:35:15;96737.63;;;6.89;100.00
20987;BME280;10652;50.306;8.570;2024-02-26T16:39:18;96741.88;;;6.90;100.00
20987;BME280;10652;50.306;8.570;2024-02-26T16:43:20;96743.91;;;6.85;100.00
20987;BME280;10652;50.306;8.570;2024-02-26T16:47:22;96748.53;;;6.80;100.00
20987;BME280;10652;50.306;8.570;2024-02-26T16:51:25;96751.28;;;6.77;100.00
20987;BME280;10652;50.306;8.570;2024-02-26T16:55:27;96750.84;;;6.69;100.00
20987;BME280;10652;50.306;8.570;2024-02-26T16:59:29;96764.44;;;6.59;100.00
20987;BME280;10652;50.306;8.570;2024-02-26T17:03:32;96768.13;;;6.55;100.00
20987;BME280;10652;50.306;8.570;2024-02-26T17:07:35;96765.63;;;6.53;100.00
20987;BME280;10652;50.306;8.570;2024-02-26T17:11:37;96776.06;;;6.53;100.00
20987;BME280;10652;50.306;8.570;2024-02-26T17:15:43;96786.34;;;6.56;100.00
20987;BME280;10652;50.306;8.570;2024-02-26T17:19:45;96797.31;;;6.63;100.00
20987;BME280;10652;50.306;8.570;2024-02-26T17:23:47;96797.16;;;6.66;100.00
20987;BME280;10652;50.306;8.570;2024-02-26T17:27:50;96804.19;;;6.64;100.00
20987;BME280;10652;50.306;8.570;2024-02-26T17:31:52;96814.78;;;6.61;100.00
20987;BME280;10652;50.306;8.570;2024-02-26T17:35:54;96823.06;;;6.69;100.00
20987;BME280;10652;50.306;8.570;2024-02-26T17:39:56;96832.53;;;6.71;100.00
20987;BME280;10652;50.306;8.570;2024-02-26T17:43:58;96836.22;;;6.67;100.00
20987;BME280;10652;50.306;8.570;2024-02-26T17:48:01;96852.63;;;6.69;100.00
20987;BME280;10652;50.306;8.570;2024-02-26T17:52:03;96855.06;;;6.72;100.00
20987;BME280;10652;50.306;8.570;2024-02-26T17:56:07;96854.31;;;6.70;99.37
20987;BME280;10652;50.306;8.570;2024-02-26T18:00:09;96863.97;;;6.68;97.75
20987;BME280;10652;50.306;8.570;2024-02-26T18:04:12;96862.78;;;6.58;97.48
20987;BME280;10652;50.306;8.570;2024-02-26T18:08:15;96859.69;;;6.50;97.18
20987;BME280;10652;50.306;8.570;2024-02-26T18:12:17;96872.59;;;6.53;97.15
20987;BME280;10652;50.306;8.570;2024-02-26T18:16:19;96870.28;;;6.47;96.42
20987;BME280;10652;50.306;8.570;2024-02-26T18:20:21;96863.97;;;6.34;95.53
20987;BME280;10652;50.306;8.570;2024-02-26T18:24:24;96873.91;;;6.26;96.25
20987;BME280;10652;50.306;8.570;2024-02-26T18:28:27;96880.31;;;6.19;95.56
20987;BME280;10652;50.306;8.570;2024-02-26T18:32:29;96883.09;;;6.16;95.60
20987;BME280;10652;50.306;8.570;2024-02-26T18:36:32;96892.88;;;6.11;95.42
20987;BME280;10652;50.306;8.570;2024-02-26T18:40:35;96891.50;;;6.03;95.80
20987;BME280;10652;50.306;8.570;2024-02-26T18:44:38;96896.78;;;6.02;95.80
20987;BME280;10652;50.306;8.570;2024-02-26T18:48:45;96909.13;;;5.98;95.67
20987;BME280;10652;50.306;8.570;2024-02-26T18:52:48;96916.31;;;5.93;95.40
20987;BME280;10652;50.306;8.570;2024-02-26T18:56:50;96928.56;;;5.91;95.97
20987;BME280;10652;50.306;8.570;2024-02-26T19:00:52;96927.69;;;5.91;96.10
20987;BME280;10652;50.306;8.570;2024-02-26T19:04:55;96937.38;;;5.89;95.90
20987;BME280;10652;50.306;8.570;2024-02-26T19:08:58;96942.50;;;5.90;95.96
20987;BME280;10652;50.306;8.570;2024-02-26T19:13:00;96958.06;;;5.92;95.37
20987;BME280;10652;50.306;8.570;2024-02-26T19:17:02;96964.91;;;5.94;94.68
20987;BME280;10652;50.306;8.570;2024-02-26T19:21:05;96961.38;;;5.95;94.36
20987;BME280;10652;50.306;8.570;2024-02-26T19:25:11;96974.50;;;5.94;93.87
20987;BME280;10652;50.306;8.570;2024-02-26T19:29:13;96975.63;;;5.88;93.37
20987;BME280;10652;50.306;8.570;2024-02-26T19:33:16;96979.28;;;5.84;92.56
20987;BME280;10652;50.306;8.570;2024-02-26T19:37:19;96988.16;;;5.80;93.38
20987;BME280;10652;50.306;8.570;2024-02-26T19:41:22;96986.44;;;5.79;94.18
20987;BME280;10652;50.306;8.570;2024-02-26T19:45:24;96996.88;;;5.79;94.20
20987;BME280;10652;50.306;8.570;2024-02-26T19:49:27;96991.72;;;5.78;94.53
20987;BME280;10652;50.306;8.570;2024-02-26T19:53:29;97009.13;;;5.77;94.64
20987;BME280;10652;50.306;8.570;2024-02-26T19:57:32;97016.94;;;5.77;94.48
20987;BME280;10652;50.306;8.570;2024-02-26T20:01:35;97020.47;;;5.76;94.89
20987;BME280;10652;50.306;8.570;2024-02-26T20:05:38;97024.75;;;5.77;94.32
20987;BME280;10652;50.306;8.570;2024-02-26T20:09:40;97036.72;;;5.81;94.79
20987;BME280;10652;50.306;8.570;2024-02-26T20:13:43;97047.16;;;5.81;94.33
20987;BME280;10652;50.306;8.570;2024-02-26T20:17:45;97049.91;;;5.78;93.73
20987;BME280;10652;50.306;8.570;2024-02-26T20:21:47;97064.63;;;5.79;94.08
20987;BME280;10652;50.306;8.570;2024-02-26T20:25:50;97063.06;;;5.75;93.41
20987;BME280;10652;50.306;8.570;2024-02-26T20:29:52;97078.84;;;5.72;93.05
20987;BME280;10652;50.306;8.570;2024-02-26T20:33:58;97082.41;;;5.70;92.82
20987;BME280;10652;50.306;8.570;2024-02-26T20:38:03;97084.06;;;5.72;93.16
20987;BME280;10652;50.306;8.570;2024-02-26T20:42:05;97096.75;;;5.80;93.15
20987;BME280;10652;50.306;8.570;2024-02-26T20:46:09;97099.00;;;5.87;92.94
20987;BME280;10652;50.306;8.570;2024-02-26T20:50:11;97112.84;;;5.89;92.09
20987;BME280;10652;50.306;8.570;2024-02-26T20:54:14;97125.88;;;5.89;91.95
20987;BME280;10652;50.306;8.570;2024-02-26T20:58:16;97123.91;;;5.94;92.01
20987;BME280;10652;50.306;8.570;2024-02-26T21:02:19;97128.84;;;6.00;92.14
20987;BME280;10652;50.306;8.570;2024-02-26T21:06:31;97148.66;;;6.04;91.68
20987;BME280;10652;50.306;8.570;2024-02-26T21:10:33;97148.53;;;6.08;91.46
20987;BME280;10652;50.306;8.570;2024-02-26T21:14:36;97158.03;;;6.09;90.63
20987;BME280;10652;50.306;8.570;2024-02-26T21:18:38;97162.63;;;6.03;90.89
20987;BME280;10652;50.306;8.570;2024-02-26T21:22:42;97169.44;;;6.06;91.22
20987;BME280;10652;50.306;8.570;2024-02-26T21:26:46;97183.63;;;6.19;92.28
20987;BME280;10652;50.306;8.570;2024-02-26T21:30:49;97181.88;;;6.20;91.56
20987;BME280;10652;50.306;8.570;2024-02-26T21:34:51;97184.63;;;6.17;91.34
20987;BME280;10652;50.306;8.570;2024-02-26T21:38:53;97199.63;;;6.12;90.82
20987;BME280;10652;50.306;8.570;2024-02-26T21:42:58;97196.69;;;5.99;91.64
20987;BME280;10652;50.306;8.570;2024-02-26T21:47:06;97209.06;;;5.94;93.75